Time;durP1;ratioP1;P1;durP2;ratioP2;P2;SDS_P1;SDS_P2;PMS_P1;PMS_P2;Temp;Humidity;BMP_temperature;BMP_pressure;BME280_temperature;BME280_humidity;BME280_pressure;Samples;Min_cycle;Max_cycle;Signal;HPM_P1;HPM_P2
2022/06/24 00:01:54;;;;;;;2.40;2.10;;;20.20;99.90;;;;;;5091640;28;20127;-73
2022/06/24 00:04:25;;;;;;;2.38;2.05;;;20.40;99.90;;;;;;5091343;28;20527;-72
2022/06/24 00:06:51;;;;;;;2.60;2.10;;;20.70;99.90;;;;;;5073302;28;20081;-72
2022/06/24 00:09:17;;;;;;;3.47;2.40;;;20.70;99.90;;;;;;5091139;28;20048;-72
2022/06/24 00:11:43;;;;;;;4.20;2.40;;;20.80;99.90;;;;;;5089871;28;20043;-72
2022/06/24 00:14:14;;;;;;;3.58;2.40;;;20.80;99.90;;;;;;5090433;28;20070;-73
2022/06/24 00:16:56;;;;;;;3.08;2.10;;;20.70;99.90;;;;;;5090468;28;20542;-72
2022/06/24 00:19:24;;;;;;;4.18;2.53;;;20.60;99.90;;;;;;5090574;28;20132;-71
2022/06/24 00:21:58;;;;;;;3.35;2.25;;;20.60;99.90;;;;;;5056007;28;20047;-72
2022/06/24 00:24:23;;;;;;;3.15;2.05;;;20.60;99.90;;;;;;5071588;28;20053;-73
2022/06/24 00:26:49;;;;;;;3.45;2.20;;;20.60;99.90;;;;;;5090715;28;20044;-72
2022/06/24 00:29:16;;;;;;;3.30;2.20;;;20.60;99.90;;;;;;5072276;28;20052;-72
2022/06/24 00:31:59;;;;;;;3.40;2.17;;;20.60;99.90;;;;;;5069123;28;20475;-72
2022/06/24 00:34:24;;;;;;;3.33;2.20;;;20.60;99.90;;;;;;5085493;28;20123;-72
2022/06/24 00:36:50;;;;;;;3.03;2.08;;;20.60;99.90;;;;;;5090455;28;20457;-72
2022/06/24 00:39:15;;;;;;;3.60;2.20;;;20.60;99.90;;;;;;5089082;28;20048;-72
2022/06/24 00:41:41;;;;;;;4.35;2.33;;;20.50;99.90;;;;;;5089737;28;20051;-73
2022/06/24 00:44:10;;;;;;;3.42;2.10;;;20.50;99.90;;;;;;5090148;28;20043;-72
2022/06/24 00:46:39;;;;;;;2.97;2.30;;;20.50;99.90;;;;;;5090372;28;20115;-72
2022/06/24 00:49:07;;;;;;;3.55;2.30;;;20.40;99.90;;;;;;5090262;28;20089;-72
2022/06/24 00:51:36;;;;;;;4.00;2.28;;;20.40;99.90;;;;;;5090207;28;20047;-72
2022/06/24 00:54:23;;;;;;;2.75;2.30;;;20.40;99.90;;;;;;5089792;28;20044;-72
2022/06/24 00:56:55;;;;;;;3.17;2.45;;;20.40;99.90;;;;;;5090186;28;20131;-72
2022/06/24 00:59:20;;;;;;;4.18;2.47;;;20.30;99.90;;;;;;5072280;28;20480;-72
2022/06/24 01:01:49;;;;;;;2.97;2.53;;;20.20;99.90;;;;;;5090224;28;20063;-73
2022/06/24 01:04:15;;;;;;;4.05;2.30;;;20.20;99.90;;;;;;5068672;28;20106;-72
2022/06/24 01:06:44;;;;;;;3.30;2.55;;;20.10;99.90;;;;;;5069933;28;20041;-71
2022/06/24 01:09:10;;;;;;;3.55;2.55;;;20.10;99.90;;;;;;5021507;28;1204823;-72
2022/06/24 01:11:41;;;;;;;2.80;2.50;;;20.00;99.90;;;;;;5088152;28;20501;-73
2022/06/24 01:14:08;;;;;;;4.10;2.60;;;19.90;99.90;;;;;;5090582;28;20507;-72
2022/06/24 01:16:34;;;;;;;3.42;2.50;;;19.90;99.90;;;;;;5091037;28;20048;-72
2022/06/24 01:19:05;;;;;;;4.15;2.75;;;19.80;99.90;;;;;;5090875;28;20052;-72
2022/06/24 01:21:37;;;;;;;3.53;2.60;;;19.80;99.90;;;;;;5091087;28;20099;-72
2022/06/24 01:24:15;;;;;;;3.72;2.42;;;19.80;99.90;;;;;;5090751;28;20036;-72
2022/06/24 01:26:42;;;;;;;3.95;2.60;;;19.80;99.90;;;;;;5090911;28;20067;-72
2022/06/24 01:29:09;;;;;;;3.28;2.60;;;19.70;99.90;;;;;;5090743;28;20115;-72
2022/06/24 01:31:35;;;;;;;3.92;2.50;;;19.70;99.90;;;;;;5090781;28;20490;-72
2022/06/24 01:34:01;;;;;;;3.10;2.30;;;19.60;99.90;;;;;;5090770;28;20063;-72
2022/06/24 01:36:27;;;;;;;2.70;2.25;;;19.60;99.90;;;;;;5090622;28;20051;-72
2022/06/24 01:38:53;;;;;;;3.88;2.50;;;19.50;99.90;;;;;;5090750;28;20044;-72
2022/06/24 01:41:19;;;;;;;5.10;2.40;;;19.50;99.90;;;;;;5071886;28;20079;-72
2022/06/24 01:43:44;;;;;;;3.28;2.33;;;19.50;99.90;;;;;;5090558;28;20438;-72
2022/06/24 01:46:11;;;;;;;4.03;2.55;;;19.50;99.90;;;;;;5090541;28;20125;-72
2022/06/24 01:48:38;;;;;;;3.08;2.53;;;19.50;99.90;;;;;;5072678;28;20052;-72
2022/06/24 01:51:04;;;;;;;3.95;2.70;;;19.40;99.90;;;;;;5093589;28;20115;-72
2022/06/24 01:53:30;;;;;;;3.00;2.30;;;19.40;99.90;;;;;;5094372;28;20387;-72
2022/06/24 01:55:55;;;;;;;3.00;2.20;;;19.30;99.90;;;;;;5094141;28;20048;-72
2022/06/24 01:58:21;;;;;;;4.07;2.30;;;19.30;99.90;;;;;;5093947;28;20051;-72
2022/06/24 02:00:47;;;;;;;3.67;2.15;;;19.30;99.90;;;;;;5072724;28;20079;-72
2022/06/24 02:03:12;;;;;;;3.03;2.60;;;19.30;99.90;;;;;;5078510;28;20120;-72
2022/06/24 02:05:40;;;;;;;3.88;2.72;;;19.40;99.90;;;;;;5094033;28;20471;-71
2022/06/24 02:08:05;;;;;;;5.53;2.55;;;19.30;99.90;;;;;;5093812;28;20044;-72
2022/06/24 02:13:28;;;;;;;4.65;2.70;;;19.10;99.90;;;;;;5093875;28;20109;-72
2022/06/24 02:15:55;;;;;;;3.28;2.40;;;19.00;99.90;;;;;;5093912;28;20075;-71
2022/06/24 02:18:22;;;;;;;3.75;2.50;;;18.90;99.90;;;;;;5093692;28;20048;-72
2022/06/24 02:20:48;;;;;;;3.72;2.60;;;18.90;99.90;;;;;;5093547;28;20476;-72
2022/06/24 02:23:14;;;;;;;3.97;2.30;;;18.90;99.90;;;;;;5093571;28;20040;-73
2022/06/24 02:25:39;;;;;;;3.40;2.30;;;18.90;99.90;;;;;;5075623;28;20055;-71
2022/06/24 02:28:05;;;;;;;4.50;3.05;;;18.80;99.90;;;;;;5093600;28;20131;-72
2022/06/24 02:30:31;;;;;;;3.30;2.47;;;18.80;99.90;;;;;;5093080;28;20044;-72
2022/06/24 02:32:56;;;;;;;2.90;2.30;;;18.80;99.90;;;;;;5093433;28;20062;-72
2022/06/24 02:35:22;;;;;;;2.88;2.42;;;18.80;99.90;;;;;;5093518;28;20048;-72
2022/06/24 02:37:48;;;;;;;2.92;2.45;;;18.90;99.90;;;;;;5075336;28;20055;-71
2022/06/24 02:42:58;;;;;;;3.95;2.80;;;18.90;99.90;;;;;;5050226;28;20110;-72
2022/06/24 02:45:24;;;;;;;3.53;2.35;;;18.90;99.90;;;;;;5075222;28;20087;-73
2022/06/24 02:47:50;;;;;;;4.13;2.90;;;18.90;99.90;;;;;;5093216;28;20036;-71
2022/06/24 02:50:16;;;;;;;4.55;2.67;;;18.90;99.90;;;;;;5092334;28;20100;-72
2022/06/24 02:52:41;;;;;;;3.95;2.50;;;19.00;99.90;;;;;;5093139;28;20097;-72
2022/06/24 02:55:08;;;;;;;4.72;3.10;;;18.90;99.90;;;;;;5092720;28;20051;-72
2022/06/24 02:57:33;;;;;;;4.40;2.90;;;18.90;99.90;;;;;;5074760;28;20048;-72
2022/06/24 02:59:59;;;;;;;4.25;2.83;;;18.70;99.90;;;;;;5092815;28;20051;-72
2022/06/24 03:02:25;;;;;;;4.05;2.95;;;18.50;99.90;;;;;;5091927;28;20048;-72
2022/06/24 03:04:51;;;;;;;5.18;3.40;;;18.50;99.90;;;;;;5092582;28;20047;-72
2022/06/24 03:07:16;;;;;;;3.75;2.97;;;18.50;99.90;;;;;;5074617;28;20488;-72
2022/06/24 03:09:42;;;;;;;4.57;2.90;;;18.50;99.90;;;;;;5074284;28;20056;-72
2022/06/24 03:12:08;;;;;;;3.95;3.15;;;18.50;99.90;;;;;;5091884;28;20040;-71
2022/06/24 03:14:34;;;;;;;3.70;3.30;;;18.50;99.90;;;;;;5092617;28;20123;-72
2022/06/24 03:17:00;;;;;;;3.85;2.78;;;18.50;99.90;;;;;;5092569;28;20181;-73
2022/06/24 03:19:25;;;;;;;5.53;3.10;;;18.50;99.90;;;;;;5092392;28;20040;-72
2022/06/24 03:21:51;;;;;;;4.30;3.25;;;18.40;99.90;;;;;;5092603;28;20040;-71
2022/06/24 03:24:17;;;;;;;3.25;2.75;;;18.40;99.90;;;;;;5092162;28;20499;-72
2022/06/24 03:26:43;;;;;;;4.97;2.75;;;18.30;99.90;;;;;;5090024;28;20046;-72
2022/06/24 03:29:09;;;;;;;4.72;3.08;;;18.40;99.90;;;;;;5090088;28;20040;-73
2022/06/24 03:31:34;;;;;;;3.63;2.80;;;18.40;99.90;;;;;;5090203;28;20044;-72
2022/06/24 03:34:00;;;;;;;3.58;2.70;;;18.40;99.90;;;;;;5072280;28;20040;-72
2022/06/24 03:36:26;;;;;;;3.22;2.65;;;18.30;99.90;;;;;;5091881;28;20158;-72
2022/06/24 03:38:51;;;;;;;3.42;2.72;;;18.40;99.90;;;;;;5091909;28;20126;-72
2022/06/24 03:41:17;;;;;;;3.25;2.30;;;18.40;99.90;;;;;;5091457;28;20052;-72
2022/06/24 03:43:43;;;;;;;4.32;2.83;;;18.50;99.90;;;;;;5074056;28;20113;-72
2022/06/24 03:46:09;;;;;;;3.70;2.60;;;18.50;99.90;;;;;;5091999;28;20097;-72
2022/06/24 03:48:34;;;;;;;3.25;2.83;;;18.60;99.90;;;;;;5091931;28;20048;-72
2022/06/24 03:51:00;;;;;;;3.38;2.60;;;18.60;99.90;;;;;;5073706;28;20048;-72
2022/06/24 03:53:26;;;;;;;3.13;2.30;;;18.70;99.90;;;;;;5073785;28;20460;-72
2022/06/24 03:55:52;;;;;;;3.10;2.40;;;18.80;99.90;;;;;;5091331;28;20118;-72
2022/06/24 03:58:18;;;;;;;3.55;2.50;;;18.80;99.90;;;;;;5091863;28;20047;-72
2022/06/24 04:00:45;;;;;;;3.80;2.65;;;18.90;99.90;;;;;;5091603;28;20048;-72
2022/06/24 04:03:11;;;;;;;3.22;2.50;;;18.90;99.90;;;;;;5091696;28;20041;-72
2022/06/24 04:05:36;;;;;;;3.08;2.78;;;18.90;99.90;;;;;;5091989;28;20059;-73
2022/06/24 04:08:02;;;;;;;3.10;2.70;;;19.00;99.90;;;;;;5092199;28;20052;-72
2022/06/24 04:10:28;;;;;;;3.60;2.90;;;19.00;99.90;;;;;;5074827;28;20059;-72
2022/06/24 04:12:54;;;;;;;4.47;3.00;;;19.00;99.90;;;;;;5092260;28;20054;-71
2022/06/24 04:15:20;;;;;;;3.58;2.67;;;19.10;99.90;;;;;;5091362;28;20055;-72
2022/06/24 04:17:47;;;;;;;4.95;2.80;;;19.20;99.90;;;;;;5091550;28;20101;-71
2022/06/24 04:20:15;;;;;;;3.95;2.90;;;19.30;99.90;;;;;;5073428;28;20126;-72
2022/06/24 04:22:41;;;;;;;4.18;2.90;;;19.40;99.90;;;;;;5091384;28;20052;-72
2022/06/24 04:25:07;;;;;;;3.45;2.65;;;19.50;99.90;;;;;;5091373;28;20126;-72
2022/06/24 04:27:33;;;;;;;4.68;3.00;;;19.50;99.90;;;;;;5091197;28;20040;-73
2022/06/24 04:30:05;;;;;;;3.08;2.78;;;19.60;99.90;;;;;;5090432;28;20392;-72
2022/06/24 04:32:31;;;;;;;3.60;2.90;;;19.70;99.90;;;;;;5091521;28;20123;-72
2022/06/24 04:34:57;;;;;;;3.70;2.95;;;19.70;99.90;;;;;;5091316;28;20044;-72
2022/06/24 04:37:22;;;;;;;4.28;3.00;;;19.70;99.90;;;;;;5091001;28;20046;-72
2022/06/24 04:39:48;;;;;;;4.55;2.50;;;19.80;99.90;;;;;;5091272;28;20055;-72
2022/06/24 04:42:14;;;;;;;3.85;2.72;;;19.90;99.90;;;;;;5090671;28;20045;-72
2022/06/24 04:44:40;;;;;;;3.70;3.30;;;20.00;99.90;;;;;;5090841;28;20059;-72
2022/06/24 04:47:05;;;;;;;4.90;3.40;;;20.00;99.90;;;;;;5091454;28;20079;-75
2022/06/24 04:49:32;;;;;;;3.50;3.20;;;20.00;99.90;;;;;;5072673;28;20086;-72
2022/06/24 04:51:58;;;;;;;3.95;3.03;;;20.00;99.90;;;;;;5091458;28;20471;-72
2022/06/24 04:54:24;;;;;;;4.45;3.38;;;20.00;99.90;;;;;;5090739;28;20087;-73
2022/06/24 04:56:50;;;;;;;3.10;2.75;;;20.00;99.90;;;;;;5091074;28;20037;-72
2022/06/24 04:59:15;;;;;;;3.42;3.13;;;20.00;99.90;;;;;;5091100;28;20055;-72
2022/06/24 05:01:41;;;;;;;6.70;3.20;;;20.00;99.90;;;;;;5055998;28;20407;-71
2022/06/24 05:04:07;;;;;;;4.72;3.20;;;20.10;99.90;;;;;;5090970;28;20040;-72
2022/06/24 05:06:33;;;;;;;4.80;2.90;;;20.10;99.90;;;;;;5090956;28;20052;-72
2022/06/24 05:08:59;;;;;;;4.10;3.65;;;20.20;99.90;;;;;;5090534;28;20070;-72
2022/06/24 05:11:25;;;;;;;6.10;4.20;;;20.30;99.90;;;;;;5090512;28;20056;-72
2022/06/24 05:13:51;;;;;;;6.95;5.32;;;20.40;99.90;;;;;;5090640;28;20519;-72
2022/06/24 05:16:17;;;;;;;7.68;5.78;;;20.50;99.90;;;;;;5091030;28;20080;-72
2022/06/24 05:18:42;;;;;;;9.80;5.85;;;20.50;99.90;;;;;;5090880;28;20123;-72
2022/06/24 05:21:08;;;;;;;6.88;5.53;;;20.50;99.90;;;;;;5090978;28;20378;-72
2022/06/24 05:23:34;;;;;;;7.68;6.18;;;20.50;99.90;;;;;;5090770;28;20052;-72
2022/06/24 05:26:00;;;;;;;8.70;6.32;;;20.40;99.90;;;;;;5094257;28;20131;-72
2022/06/24 05:28:25;;;;;;;8.20;6.38;;;20.40;99.90;;;;;;5095057;28;20457;-73
2022/06/24 05:30:57;;;;;;;8.23;7.13;;;20.40;99.90;;;;;;5094369;28;20040;-72
2022/06/24 05:33:24;;;;;;;7.30;6.60;;;20.40;99.90;;;;;;5094627;28;20044;-72
2022/06/24 05:35:56;;;;;;;10.15;6.75;;;20.30;99.90;;;;;;5094522;28;20499;-73
2022/06/24 05:38:22;;;;;;;8.90;6.57;;;20.20;99.90;;;;;;5076337;28;20055;-73
2022/06/24 05:40:50;;;;;;;10.90;7.75;;;20.20;99.90;;;;;;5076108;28;20445;-73
2022/06/24 05:43:16;;;;;;;9.30;7.25;;;20.00;99.90;;;;;;5094390;28;20128;-73
2022/06/24 05:45:42;;;;;;;10.25;7.40;;;20.00;99.90;;;;;;5094689;28;20055;-74
2022/06/24 05:48:08;;;;;;;8.75;7.00;;;19.80;99.90;;;;;;5094247;28;20039;-73
2022/06/24 05:50:37;;;;;;;8.68;7.15;;;19.80;99.90;;;;;;5094203;28;20044;-73
2022/06/24 05:55:49;;;;;;;9.07;7.17;;;19.70;99.90;;;;;;5094173;28;20052;-74
2022/06/24 05:58:15;;;;;;;9.65;7.43;;;19.70;99.90;;;;;;5094196;28;20052;-73
2022/06/24 06:00:41;;;;;;;11.10;7.90;;;19.70;99.90;;;;;;5075240;28;20508;-74
2022/06/24 06:03:07;;;;;;;10.90;8.02;;;19.60;99.90;;;;;;5059328;28;20132;-74
2022/06/24 06:05:33;;;;;;;10.93;8.30;;;19.60;99.90;;;;;;5076001;28;20188;-77
2022/06/24 06:07:58;;;;;;;11.10;7.80;;;19.60;99.90;;;;;;5073783;28;20053;-74
2022/06/24 06:10:24;;;;;;;10.55;7.68;;;19.60;99.90;;;;;;5087963;28;20048;-74
2022/06/24 06:12:50;;;;;;;8.40;7.40;;;19.60;99.90;;;;;;5093164;28;20052;-73
2022/06/24 06:15:15;;;;;;;8.90;7.35;;;19.60;99.90;;;;;;5093746;28;20051;-73
2022/06/24 06:17:41;;;;;;;8.13;6.38;;;19.60;99.90;;;;;;5093403;28;20165;-73
2022/06/24 06:20:07;;;;;;;9.23;6.80;;;19.60;99.90;;;;;;5075923;28;20088;-73
2022/06/24 06:22:33;;;;;;;7.18;5.85;;;19.70;99.90;;;;;;5072097;28;20050;-74
2022/06/24 06:24:59;;;;;;;6.22;5.57;;;19.80;99.90;;;;;;5088002;28;20044;-73
2022/06/24 06:27:24;;;;;;;9.63;7.22;;;19.90;99.90;;;;;;5093665;28;20079;-68
2022/06/24 06:29:50;;;;;;;7.53;5.85;;;19.90;99.90;;;;;;5093448;28;20483;-66
2022/06/24 06:32:16;;;;;;;6.43;5.72;;;19.90;99.90;;;;;;5093316;28;20056;-66
2022/06/24 06:34:41;;;;;;;6.93;5.25;;;19.90;99.90;;;;;;5075307;28;20389;-66
2022/06/24 06:37:07;;;;;;;5.85;4.93;;;19.90;99.90;;;;;;5093252;28;20051;-67
2022/06/24 06:39:33;;;;;;;5.55;4.90;;;19.90;99.90;;;;;;5093256;28;20090;-67
2022/06/24 06:41:59;;;;;;;6.45;4.95;;;19.90;99.90;;;;;;5092827;28;20059;-67
2022/06/24 06:44:24;;;;;;;6.88;5.30;;;19.90;99.90;;;;;;5092465;28;20073;-68
2022/06/24 06:46:50;;;;;;;7.20;5.05;;;19.80;99.90;;;;;;5093214;28;20121;-67
2022/06/24 06:49:16;;;;;;;6.78;5.38;;;19.80;99.90;;;;;;5092649;28;20046;-67
2022/06/24 06:51:41;;;;;;;6.75;5.53;;;19.70;99.90;;;;;;5092937;28;20085;-67
2022/06/24 06:54:07;;;;;;;7.30;5.25;;;19.60;99.90;;;;;;5093258;28;20453;-67
2022/06/24 06:56:33;;;;;;;6.57;4.90;;;19.60;99.90;;;;;;5092974;28;20409;-67
2022/06/24 06:58:58;;;;;;;6.40;5.32;;;19.60;99.90;;;;;;5092574;28;20512;-67
2022/06/24 07:01:24;;;;;;;7.30;5.20;;;19.60;99.90;;;;;;5092840;28;20446;-67
2022/06/24 07:03:50;;;;;;;7.13;5.10;;;19.50;99.90;;;;;;5092521;28;20055;-67
2022/06/24 07:06:15;;;;;;;8.63;5.07;;;19.50;99.90;;;;;;5092871;28;20051;-67
2022/06/24 07:08:41;;;;;;;7.40;5.53;;;19.50;99.90;;;;;;5092413;28;20048;-67
2022/06/24 07:11:07;;;;;;;7.28;5.43;;;19.50;99.90;;;;;;5092183;28;20040;-67
2022/06/24 07:13:32;;;;;;;8.63;5.25;;;19.50;99.90;;;;;;5092426;28;20036;-67
2022/06/24 07:15:58;;;;;;;6.30;5.20;;;19.50;99.90;;;;;;5092441;28;20064;-66
2022/06/24 07:18:24;;;;;;;6.18;5.20;;;19.50;99.90;;;;;;5092569;28;20071;-66
2022/06/24 07:20:49;;;;;;;6.45;5.22;;;19.50;99.90;;;;;;5092525;28;20063;-66
2022/06/24 07:23:15;;;;;;;6.85;5.38;;;19.50;99.90;;;;;;5074393;28;20129;-67
2022/06/24 07:25:41;;;;;;;7.15;5.38;;;19.50;99.90;;;;;;5072298;28;20446;-66
2022/06/24 07:28:09;;;;;;;7.07;5.13;;;19.50;99.90;;;;;;5084800;28;20515;-69
2022/06/24 07:30:34;;;;;;;7.53;5.28;;;19.50;99.90;;;;;;5079565;28;20041;-65
2022/06/24 07:33:00;;;;;;;6.75;5.75;;;19.50;99.90;;;;;;5082734;28;20502;-66
2022/06/24 07:35:26;;;;;;;8.52;5.20;;;19.40;99.90;;;;;;5089909;28;20048;-66
2022/06/24 07:37:52;;;;;;;6.55;5.35;;;19.40;99.90;;;;;;5080420;28;20048;-66
2022/06/24 07:40:17;;;;;;;7.07;5.80;;;19.40;99.90;;;;;;5085062;28;20044;-66
2022/06/24 07:42:43;;;;;;;6.80;5.80;;;19.50;99.90;;;;;;5085107;28;20658;-66
2022/06/24 07:45:10;;;;;;;6.43;5.78;;;19.50;99.90;;;;;;5081912;28;20044;-67
2022/06/24 07:47:36;;;;;;;8.07;5.78;;;19.50;99.90;;;;;;5075423;28;20141;-67
2022/06/24 07:50:05;;;;;;;7.53;5.80;;;19.50;99.90;;;;;;5075601;28;20040;-68
2022/06/24 07:52:31;;;;;;;5.78;4.97;;;19.50;99.90;;;;;;5071047;28;20048;-68
2022/06/24 07:57:43;;;;;;;6.50;5.20;;;19.60;99.90;;;;;;5045742;28;20048;-67
2022/06/24 08:00:09;;;;;;;7.53;5.47;;;19.60;99.90;;;;;;5090232;28;20040;-67
2022/06/24 08:02:34;;;;;;;7.68;6.05;;;19.60;99.90;;;;;;5084781;28;20052;-67
2022/06/24 08:05:00;;;;;;;6.78;5.30;;;19.60;99.90;;;;;;5088467;28;20041;-67
2022/06/24 08:07:26;;;;;;;8.45;6.10;;;19.60;99.90;;;;;;5080300;28;20113;-67
2022/06/24 08:09:51;;;;;;;8.73;6.07;;;19.60;99.90;;;;;;5078861;28;20243;-67
2022/06/24 08:12:17;;;;;;;7.10;5.63;;;19.60;99.90;;;;;;5082900;28;20052;-67
2022/06/24 08:14:43;;;;;;;7.88;5.80;;;19.60;99.90;;;;;;5078746;28;20044;-66
2022/06/24 08:17:08;;;;;;;8.32;6.13;;;19.60;99.90;;;;;;5090340;28;20047;-67
2022/06/24 08:19:35;;;;;;;7.78;5.47;;;19.70;99.90;;;;;;5090846;28;20067;-67
2022/06/24 08:22:00;;;;;;;7.53;5.95;;;19.70;99.90;;;;;;5090369;28;20512;-66
2022/06/24 08:24:26;;;;;;;7.22;5.75;;;19.60;99.90;;;;;;5090955;28;20055;-66
2022/06/24 08:26:52;;;;;;;7.03;5.78;;;19.70;99.90;;;;;;5091113;28;20543;-67
2022/06/24 08:29:17;;;;;;;7.75;6.03;;;19.70;99.90;;;;;;5090872;28;20158;-67
2022/06/24 08:31:43;;;;;;;7.63;5.70;;;19.70;99.90;;;;;;5090723;28;20052;-67
2022/06/24 08:34:10;;;;;;;9.52;6.50;;;19.70;99.90;;;;;;5090940;28;20082;-67
2022/06/24 08:36:36;;;;;;;8.70;6.60;;;19.70;99.90;;;;;;5090796;28;20048;-67
2022/06/24 08:39:02;;;;;;;8.05;5.80;;;19.70;99.90;;;;;;5073067;28;20054;-66
2022/06/24 08:41:28;;;;;;;10.43;6.93;;;19.70;99.90;;;;;;5090148;28;20081;-67
2022/06/24 08:43:55;;;;;;;9.65;6.93;;;19.70;99.90;;;;;;5072844;28;20151;-67
2022/06/24 08:46:22;;;;;;;9.85;7.15;;;19.70;99.90;;;;;;5090954;28;20090;-67
2022/06/24 08:48:49;;;;;;;10.38;7.28;;;19.70;99.90;;;;;;5091017;28;20391;-67
2022/06/24 08:51:15;;;;;;;9.55;7.18;;;19.70;99.90;;;;;;5090162;28;20044;-68
2022/06/24 08:53:43;;;;;;;9.75;7.82;;;19.80;99.90;;;;;;5090774;28;20149;-71
2022/06/24 08:56:09;;;;;;;8.77;7.38;;;19.80;99.90;;;;;;5090951;28;20091;-71
2022/06/24 08:58:36;;;;;;;9.45;7.88;;;19.80;99.90;;;;;;5055589;28;20133;-73
2022/06/24 09:01:02;;;;;;;10.13;7.53;;;19.90;99.90;;;;;;5094089;28;20050;-72
2022/06/24 09:03:28;;;;;;;11.50;8.75;;;20.00;99.90;;;;;;5094415;28;20385;-74
2022/06/24 09:05:53;;;;;;;10.15;8.02;;;20.00;99.90;;;;;;5094466;28;20055;-73
2022/06/24 09:08:19;;;;;;;8.23;7.35;;;20.10;99.90;;;;;;5094811;28;20106;-72
2022/06/24 09:11:06;;;;;;;9.23;8.27;;;20.10;99.90;;;;;;5094723;28;20048;-74
2022/06/24 09:13:43;;;;;;;11.88;8.80;;;20.20;99.90;;;;;;5094612;28;20055;-72
2022/06/24 09:16:10;;;;;;;9.70;8.25;;;20.20;99.90;;;;;;5094819;28;20094;-72
2022/06/24 09:18:35;;;;;;;11.50;8.88;;;20.20;99.90;;;;;;5094756;28;20052;-72
2022/06/24 09:21:01;;;;;;;10.20;8.38;;;20.30;99.90;;;;;;5094135;28;20040;-72
2022/06/24 09:23:27;;;;;;;9.55;8.55;;;20.30;99.90;;;;;;5094312;28;20048;-73
2022/06/24 09:25:56;;;;;;;10.63;9.05;;;20.30;99.90;;;;;;5094402;28;20102;-71
2022/06/24 09:28:24;;;;;;;10.38;8.70;;;20.30;99.90;;;;;;5094434;28;20047;-72
2022/06/24 09:30:59;;;;;;;10.32;8.80;;;20.30;99.90;;;;;;5094296;28;20044;-72
2022/06/24 09:33:25;;;;;;;10.80;9.27;;;20.40;99.90;;;;;;5094460;28;20047;-72
2022/06/24 09:36:03;;;;;;;11.00;9.07;;;20.50;99.90;;;;;;5093873;28;20044;-73
2022/06/24 09:38:28;;;;;;;12.35;10.48;;;20.50;99.90;;;;;;5076069;28;20060;-72
2022/06/24 09:41:04;;;;;;;11.55;9.55;;;20.50;99.90;;;;;;5094089;28;20044;-72
2022/06/24 09:43:31;;;;;;;10.48;8.70;;;20.40;99.90;;;;;;5093980;28;20418;-72
2022/06/24 09:45:57;;;;;;;10.40;9.00;;;20.30;99.90;;;;;;5076126;28;20074;-72
2022/06/24 09:48:32;;;;;;;11.35;8.70;;;20.20;99.90;;;;;;5094142;28;20184;-72
2022/06/24 09:51:07;;;;;;;10.80;9.33;;;20.10;99.90;;;;;;5075873;28;20047;-71
2022/06/24 09:53:40;;;;;;;11.20;9.88;;;20.00;99.90;;;;;;5075688;28;20101;-73
2022/06/24 09:56:08;;;;;;;10.35;8.80;;;20.00;99.90;;;;;;5094066;28;20071;-73
2022/06/24 09:58:34;;;;;;;11.60;9.52;;;20.00;99.90;;;;;;5093969;28;20097;-72
2022/06/24 10:01:00;;;;;;;9.40;7.88;;;19.90;99.90;;;;;;5093851;28;20427;-73
2022/06/24 10:03:27;;;;;;;8.40;6.38;;;19.80;99.90;;;;;;5093894;28;20132;-76
2022/06/24 10:05:59;;;;;;;5.72;2.92;;;19.60;99.90;;;;;;5093658;28;20063;-72
2022/06/24 10:08:27;;;;;;;4.88;2.72;;;19.40;99.90;;;;;;5093378;28;20567;-70
2022/06/24 10:10:59;;;;;;;2.67;1.70;;;19.10;99.90;;;;;;5074947;28;20137;-69
2022/06/24 10:13:26;;;;;;;2.90;1.40;;;18.90;99.90;;;;;;5093267;28;20060;-70
2022/06/24 10:15:55;;;;;;;3.08;1.63;;;18.80;99.90;;;;;;5093299;28;20044;-69
2022/06/24 10:18:28;;;;;;;3.40;1.83;;;18.70;99.90;;;;;;5093549;28;20101;-70
2022/06/24 10:20:59;;;;;;;2.55;1.58;;;18.60;99.90;;;;;;5093644;28;20135;-69
2022/06/24 10:23:44;;;;;;;2.50;1.77;;;18.50;99.90;;;;;;5092980;28;20118;-70
2022/06/24 10:26:14;;;;;;;2.50;1.60;;;18.50;99.90;;;;;;5067799;28;20052;-71
2022/06/24 10:28:59;;;;;;;3.17;1.52;;;18.50;99.90;;;;;;5074516;28;20036;-70
2022/06/24 10:31:45;;;;;;;3.13;1.20;;;18.40;99.90;;;;;;5093211;28;20059;-70
2022/06/24 10:34:10;;;;;;;3.55;1.33;;;18.40;99.90;;;;;;5054516;28;20103;-70
2022/06/24 10:36:36;;;;;;;1.80;1.10;;;18.30;99.90;;;;;;5072653;28;20087;-69
2022/06/24 10:39:20;;;;;;;2.28;1.25;;;18.30;99.90;;;;;;5072646;28;20099;-70
2022/06/24 10:41:46;;;;;;;2.53;1.30;;;18.30;99.90;;;;;;5082447;28;20484;-70
2022/06/24 10:44:24;;;;;;;2.60;1.35;;;18.30;99.90;;;;;;5092820;28;20113;-69
2022/06/24 10:47:05;;;;;;;3.30;1.50;;;18.30;99.90;;;;;;5092414;28;20492;-69
2022/06/24 10:49:55;;;;;;;4.10;1.58;;;18.30;99.90;;;;;;5092603;28;20055;-68
2022/06/24 10:52:37;;;;;;;3.17;1.50;;;18.30;99.90;;;;;;5092531;28;20476;-66
2022/06/24 10:55:15;;;;;;;2.42;1.67;;;18.30;99.90;;;;;;5092413;28;20036;-66
2022/06/24 10:57:51;;;;;;;2.30;1.63;;;18.30;99.90;;;;;;5088782;28;20504;-66
2022/06/24 11:00:28;;;;;;;3.75;1.70;;;18.30;99.90;;;;;;5092468;28;20040;-66
2022/06/24 11:03:02;;;;;;;2.90;1.70;;;18.40;99.90;;;;;;5092736;28;20083;-65
2022/06/24 11:05:35;;;;;;;3.38;2.08;;;18.30;99.90;;;;;;5092505;28;20493;-66
2022/06/24 11:08:02;;;;;;;2.83;1.90;;;18.20;99.90;;;;;;5091968;28;20460;-66
2022/06/24 11:10:30;;;;;;;3.30;1.77;;;18.20;99.90;;;;;;5092052;28;20055;-65
2022/06/24 11:12:59;;;;;;;3.28;1.73;;;18.10;99.90;;;;;;5091891;28;20389;-65
2022/06/24 11:15:42;;;;;;;4.22;1.83;;;18.10;99.90;;;;;;5092235;28;20039;-65
2022/06/24 11:18:32;;;;;;;2.67;1.80;;;18.10;99.90;;;;;;5074215;28;20048;-65
2022/06/24 11:21:01;;;;;;;2.97;1.67;;;18.00;99.90;;;;;;5074392;28;20480;-66
2022/06/24 11:23:32;;;;;;;2.25;1.48;;;18.00;99.90;;;;;;5091202;28;20052;-66
2022/06/24 11:26:05;;;;;;;3.17;1.58;;;18.00;99.90;;;;;;5091828;28;20246;-65
2022/06/24 11:28:36;;;;;;;2.85;1.85;;;18.10;99.90;;;;;;5092109;28;20090;-65
2022/06/24 11:31:28;;;;;;;3.45;2.03;;;18.10;99.90;;;;;;5092169;28;20079;-65
2022/06/24 11:34:03;;;;;;;3.00;1.83;;;18.20;99.90;;;;;;5091637;28;20059;-66
2022/06/24 11:36:31;;;;;;;3.95;2.00;;;18.30;99.90;;;;;;5092149;28;20074;-66
2022/06/24 11:38:58;;;;;;;2.90;2.10;;;18.40;99.90;;;;;;5091190;28;20374;-66
2022/06/24 11:41:28;;;;;;;3.13;2.10;;;18.60;99.90;;;;;;5091025;28;20040;-66
2022/06/24 11:43:54;;;;;;;3.60;2.10;;;18.80;99.90;;;;;;5091765;28;20502;-66
2022/06/24 11:46:20;;;;;;;3.42;2.33;;;18.90;99.90;;;;;;5092040;28;20043;-66
2022/06/24 11:48:46;;;;;;;2.53;1.83;;;19.10;99.90;;;;;;5091273;28;20101;-66
2022/06/24 11:51:20;;;;;;;2.97;1.98;;;19.20;99.90;;;;;;5091671;28;20044;-67
2022/06/24 11:54:03;;;;;;;4.35;1.92;;;19.30;99.90;;;;;;5073475;28;20078;-65
2022/06/24 11:56:31;;;;;;;2.67;2.00;;;19.40;99.90;;;;;;5091395;28;20059;-67
2022/06/24 11:58:59;;;;;;;3.15;2.15;;;19.40;99.90;;;;;;5091593;28;20108;-66
2022/06/24 12:01:26;;;;;;;3.22;2.50;;;19.40;99.90;;;;;;5091297;28;20579;-66
2022/06/24 12:03:54;;;;;;;3.35;2.60;;;19.50;99.90;;;;;;5091343;28;20054;-66
2022/06/24 12:06:21;;;;;;;3.80;2.92;;;19.60;99.90;;;;;;5091516;28;20134;-67
2022/06/24 12:08:47;;;;;;;3.75;2.90;;;19.70;99.90;;;;;;5072835;28;20040;-67
2022/06/24 12:11:18;;;;;;;3.28;2.78;;;19.80;99.90;;;;;;5091049;28;20097;-67
2022/06/24 12:13:56;;;;;;;6.10;3.00;;;19.80;99.90;;;;;;5091504;28;20097;-66
2022/06/24 12:16:23;;;;;;;4.78;3.30;;;19.90;99.90;;;;;;5091341;28;20044;-66
2022/06/24 12:18:49;;;;;;;4.70;3.35;;;19.90;99.90;;;;;;5072655;28;20051;-66
2022/06/24 12:21:23;;;;;;;5.50;3.08;;;20.00;99.90;;;;;;5091020;28;20036;-66
2022/06/24 12:23:48;;;;;;;3.92;2.95;;;20.00;99.90;;;;;;5090941;28;20489;-67
2022/06/24 12:26:20;;;;;;;4.68;3.63;;;20.00;99.90;;;;;;5090711;28;20051;-66
2022/06/24 12:28:58;;;;;;;4.90;3.45;;;20.10;99.90;;;;;;5090902;28;20082;-66
2022/06/24 12:31:24;;;;;;;3.92;3.15;;;20.10;99.90;;;;;;5091042;28;20127;-67
2022/06/24 12:33:52;;;;;;;4.85;3.22;;;20.10;99.90;;;;;;5090353;28;20127;-66
2022/06/24 12:36:21;;;;;;;4.15;3.55;;;20.10;99.90;;;;;;5090932;28;20047;-66
2022/06/24 12:38:55;;;;;;;5.05;3.08;;;20.20;99.90;;;;;;5073965;28;20131;-66
2022/06/24 12:41:23;;;;;;;6.05;3.97;;;20.20;99.90;;;;;;5073668;28;20496;-66
2022/06/24 12:43:51;;;;;;;5.50;4.07;;;20.30;99.90;;;;;;5092127;28;20142;-66
2022/06/24 12:46:17;;;;;;;5.30;3.90;;;20.30;99.90;;;;;;5090755;28;20540;-66
2022/06/24 12:51:27;;;;;;;6.00;5.10;;;20.40;99.90;;;;;;5090587;28;20040;-66
2022/06/24 12:53:54;;;;;;;5.30;4.75;;;20.50;99.90;;;;;;5090301;28;20049;-67
2022/06/24 12:56:20;;;;;;;6.05;4.85;;;20.50;99.90;;;;;;5090335;28;20119;-66
2022/06/24 12:58:51;;;;;;;5.30;4.38;;;20.70;99.90;;;;;;5090254;28;20411;-67
2022/06/24 13:01:17;;;;;;;5.85;4.63;;;20.70;99.90;;;;;;5072287;28;20499;-68
2022/06/24 13:03:42;;;;;;;7.05;5.13;;;20.70;99.90;;;;;;5089805;28;20132;-68